Time,TemperatureF,DewpointF,PressureIn,WindDirection,WindDirectionDegrees,WindSpeedMPH,WindSpeedGustMPH,Humidity,HourlyPrecipIn,Conditions,Clouds,dailyrainin,SolarRadiationWatts/m^2,SoftwareType,DateUTC
2013-05-11 00:21:00,51.0,33.0,-100.00,East,101,6.0,12.0,49,0.00,,,0.00,0.000000,,2013-05-11 06:21:00,
2013-05-11 00:32:00,51.0,33.0,-100.00,East,101,6.0,12.0,49,0.00,,,0.00,0.000000,,2013-05-11 06:32:00,
2013-05-11 00:42:00,51.0,33.0,-100.00,East,101,6.0,12.0,49,0.00,,,0.00,0.000000,,2013-05-11 06:42:00,
2013-05-11 00:52:00,51.0,33.0,-100.00,East,101,6.0,12.0,49,0.00,,,0.00,0.000000,,2013-05-11 06:52:00,
2013-05-11 01:21:00,47.0,31.0,-100.00,ESE,106,6.0,11.0,54,0.00,,,0.00,0.000000,,2013-05-11 07:21:00,
2013-05-11 01:32:00,47.0,31.0,-100.00,ESE,106,6.0,11.0,54,0.00,,,0.00,0.000000,,2013-05-11 07:32:00,
2013-05-11 01:42:00,47.0,31.0,-100.00,ESE,106,6.0,11.0,54,0.00,,,0.00,0.000000,,2013-05-11 07:42:00,
2013-05-11 01:52:00,47.0,31.0,-100.00,ESE,106,6.0,11.0,54,0.00,,,0.00,0.000000,,2013-05-11 07:52:00,
2013-05-11 02:21:00,46.0,32.0,-100.00,East,97,4.0,9.0,59,0.00,,,0.00,0.000000,,2013-05-11 08:21:00,
2013-05-11 02:31:00,46.0,32.0,-100.00,East,97,4.0,9.0,59,0.00,,,0.00,0.000000,,2013-05-11 08:31:00,
2013-05-11 02:42:00,46.0,32.0,-100.00,East,97,4.0,9.0,59,0.00,,,0.00,0.000000,,2013-05-11 08:42:00,
2013-05-11 02:51:00,46.0,32.0,-100.00,East,97,4.0,9.0,59,0.00,,,0.00,0.000000,,2013-05-11 08:51:00,
2013-05-11 03:21:00,45.0,32.0,-100.00,ESE,104,4.0,8.0,59,0.00,,,0.00,0.000000,,2013-05-11 09:21:00,
2013-05-11 03:32:00,45.0,32.0,-100.00,ESE,104,4.0,8.0,59,0.00,,,0.00,0.000000,,2013-05-11 09:32:00,
2013-05-11 03:42:00,45.0,32.0,-100.00,ESE,104,4.0,8.0,59,0.00,,,0.00,0.000000,,2013-05-11 09:42:00,
2013-05-11 03:52:00,45.0,32.0,-100.00,ESE,104,4.0,8.0,59,0.00,,,0.00,0.000000,,2013-05-11 09:52:00,
2013-05-11 04:22:00,44.0,31.0,-100.00,East,97,6.0,10.0,61,0.00,,,0.00,0.000000,,2013-05-11 10:22:00,
2013-05-11 04:33:00,44.0,31.0,-100.00,East,97,6.0,10.0,61,0.00,,,0.00,0.000000,,2013-05-11 10:33:00,
2013-05-11 04:42:00,44.0,31.0,-100.00,East,97,6.0,10.0,61,0.00,,,0.00,0.000000,,2013-05-11 10:42:00,
2013-05-11 04:52:00,44.0,31.0,-100.00,East,97,6.0,10.0,61,0.00,,,0.00,0.000000,,2013-05-11 10:52:00,
2013-05-11 05:21:00,43.0,31.0,-100.00,East,97,5.0,9.0,62,0.00,,,-99.99,0.000000,,2013-05-11 11:21:00,
2013-05-11 05:32:00,43.0,31.0,-100.00,East,97,5.0,9.0,62,0.00,,,-99.99,0.000000,,2013-05-11 11:32:00,
2013-05-11 05:42:00,43.0,31.0,-100.00,East,97,5.0,9.0,62,0.00,,,-99.99,0.000000,,2013-05-11 11:42:00,
2013-05-11 05:51:00,43.0,31.0,-100.00,East,97,5.0,9.0,62,0.00,,,-99.99,0.000000,,2013-05-11 11:51:00,
2013-05-11 06:21:00,42.0,30.0,-100.00,East,97,5.0,8.0,62,0.00,,,-99.99,0.000000,,2013-05-11 12:21:00,
2013-05-11 06:32:00,42.0,30.0,-100.00,East,97,5.0,8.0,62,0.00,,,-99.99,0.000000,,2013-05-11 12:32:00,
2013-05-11 06:42:00,42.0,30.0,-100.00,East,97,5.0,8.0,62,0.00,,,-99.99,0.000000,,2013-05-11 12:42:00,
2013-05-11 06:51:00,42.0,30.0,-100.00,East,97,5.0,8.0,62,0.00,,,-99.99,0.000000,,2013-05-11 12:51:00,
2013-05-11 07:21:00,44.0,31.0,-100.00,ESE,102,4.0,9.0,61,0.00,,,-99.99,51.000000,,2013-05-11 13:21:00,
2013-05-11 07:31:00,44.0,31.0,-100.00,ESE,102,4.0,9.0,61,0.00,,,-99.99,51.000000,,2013-05-11 13:31:00,
2013-05-11 07:41:00,44.0,31.0,-100.00,ESE,102,4.0,9.0,61,0.00,,,-99.99,51.000000,,2013-05-11 13:41:00,
2013-05-11 07:52:00,44.0,31.0,-100.00,ESE,102,4.0,9.0,61,0.00,,,-99.99,51.000000,,2013-05-11 13:52:00,
2013-05-11 08:21:00,50.0,31.0,-100.00,ESE,115,5.0,8.0,48,0.00,,,0.00,281.000000,,2013-05-11 14:21:00,
2013-05-11 08:32:00,50.0,31.0,-100.00,ESE,115,5.0,8.0,48,0.00,,,0.00,281.000000,,2013-05-11 14:32:00,
2013-05-11 08:41:00,50.0,31.0,-100.00,ESE,115,5.0,8.0,48,0.00,,,0.00,281.000000,,2013-05-11 14:41:00,
2013-05-11 08:51:00,50.0,31.0,-100.00,ESE,115,5.0,8.0,48,0.00,,,0.00,281.000000,,2013-05-11 14:51:00,
2013-05-11 09:21:00,59.0,33.0,-100.00,SSE,152,1.0,7.0,38,0.00,,,0.00,542.000000,,2013-05-11 15:21:00,
2013-05-11 09:32:00,59.0,33.0,-100.00,SSE,152,1.0,7.0,38,0.00,,,0.00,542.000000,,2013-05-11 15:32:00,
2013-05-11 09:42:00,59.0,33.0,-100.00,SSE,152,1.0,7.0,38,0.00,,,0.00,542.000000,,2013-05-11 15:42:00,
2013-05-11 09:53:00,59.0,33.0,-100.00,SSE,152,1.0,7.0,38,0.00,,,0.00,542.000000,,2013-05-11 15:53:00,
2013-05-11 10:22:00,67.0,36.0,-100.00,WSW,240,2.0,6.0,32,0.00,,,0.00,796.000000,,2013-05-11 16:22:00,
2013-05-11 10:33:00,67.0,36.0,-100.00,WSW,240,2.0,6.0,32,0.00,,,0.00,796.000000,,2013-05-11 16:33:00,
2013-05-11 10:42:00,67.0,36.0,-100.00,WSW,240,2.0,6.0,32,0.00,,,0.00,796.000000,,2013-05-11 16:42:00,
2013-05-11 10:52:00,67.0,36.0,-100.00,WSW,240,2.0,6.0,32,0.00,,,0.00,796.000000,,2013-05-11 16:52:00,
2013-05-11 11:22:00,68.0,33.0,-100.00,WNW,293,4.0,8.0,27,0.00,,,0.00,1014.000000,,2013-05-11 17:22:00,
2013-05-11 11:31:00,68.0,33.0,-100.00,WNW,293,4.0,8.0,27,0.00,,,0.00,1014.000000,,2013-05-11 17:31:00,
2013-05-11 11:41:00,68.0,33.0,-100.00,WNW,293,4.0,8.0,27,0.00,,,0.00,1014.000000,,2013-05-11 17:41:00,
2013-05-11 11:52:00,68.0,33.0,-100.00,WNW,293,4.0,8.0,27,0.00,,,0.00,1014.000000,,2013-05-11 17:52:00,
2013-05-11 12:21:00,70.0,29.0,-100.00,SW,226,5.0,11.0,22,0.00,,,0.00,1180.000000,,2013-05-11 18:21:00,
2013-05-11 12:32:00,70.0,29.0,-100.00,SW,226,5.0,11.0,22,0.00,,,0.00,1180.000000,,2013-05-11 18:32:00,
2013-05-11 12:41:00,70.0,29.0,-100.00,SW,226,5.0,11.0,22,0.00,,,0.00,1180.000000,,2013-05-11 18:41:00,
2013-05-11 12:51:00,70.0,29.0,-100.00,SW,226,5.0,11.0,22,0.00,,,0.00,1180.000000,,2013-05-11 18:51:00,
2013-05-11 13:21:00,74.0,29.0,-100.00,NW,306,6.0,14.0,19,0.00,,,0.00,1243.000000,,2013-05-11 19:21:00,
2013-05-11 13:32:00,74.0,29.0,-100.00,NW,306,6.0,14.0,19,0.00,,,0.00,1243.000000,,2013-05-11 19:32:00,
2013-05-11 13:41:00,74.0,29.0,-100.00,NW,306,6.0,14.0,19,0.00,,,0.00,1243.000000,,2013-05-11 19:41:00,
2013-05-11 13:52:00,74.0,29.0,-100.00,NW,306,6.0,14.0,19,0.00,,,0.00,1243.000000,,2013-05-11 19:52:00,
2013-05-11 14:22:00,75.0,27.0,-100.00,ESE,111,5.0,13.0,17,0.00,,,0.00,1299.000000,,2013-05-11 20:22:00,
2013-05-11 14:32:00,75.0,27.0,-100.00,ESE,111,5.0,13.0,17,0.00,,,0.00,1299.000000,,2013-05-11 20:32:00,
2013-05-11 14:42:00,75.0,27.0,-100.00,ESE,111,5.0,13.0,17,0.00,,,0.00,1299.000000,,2013-05-11 20:42:00,
2013-05-11 14:52:00,75.0,27.0,-100.00,ESE,111,5.0,13.0,17,0.00,,,0.00,1299.000000,,2013-05-11 20:52:00,
2013-05-11 15:21:00,75.0,26.0,-100.00,NNW,330,8.0,15.0,16,0.00,,,0.00,1206.000000,,2013-05-11 21:21:00,
2013-05-11 15:33:00,75.0,26.0,-100.00,NNW,330,8.0,15.0,16,0.00,,,0.00,1206.000000,,2013-05-11 21:33:00,
2013-05-11 15:43:00,75.0,26.0,-100.00,NNW,330,8.0,15.0,16,0.00,,,0.00,1206.000000,,2013-05-11 21:43:00,
2013-05-11 15:52:00,75.0,26.0,-100.00,NNW,330,8.0,15.0,16,0.00,,,0.00,1206.000000,,2013-05-11 21:52:00,
2013-05-11 16:23:00,76.0,27.0,-100.00,NNW,347,6.0,20.0,16,0.00,,,0.00,1159.000000,,2013-05-11 22:23:00,
2013-05-11 16:33:00,76.0,27.0,-100.00,NNW,347,6.0,20.0,16,0.00,,,0.00,1159.000000,,2013-05-11 22:33:00,
2013-05-11 16:42:00,76.0,27.0,-100.00,NNW,347,6.0,20.0,16,0.00,,,0.00,1159.000000,,2013-05-11 22:42:00,
2013-05-11 16:52:00,76.0,27.0,-100.00,NNW,347,6.0,20.0,16,0.00,,,0.00,1159.000000,,2013-05-11 22:52:00,
2013-05-11 17:22:00,73.0,27.0,-100.00,WSW,252,9.0,16.0,18,0.00,,,0.00,419.000000,,2013-05-11 23:22:00,
2013-05-11 17:32:00,73.0,27.0,-100.00,WSW,252,9.0,16.0,18,0.00,,,0.00,419.000000,,2013-05-11 23:32:00,
2013-05-11 17:42:00,73.0,27.0,-100.00,WSW,252,9.0,16.0,18,0.00,,,0.00,419.000000,,2013-05-11 23:42:00,
2013-05-11 17:52:00,73.0,27.0,-100.00,WSW,252,9.0,16.0,18,0.00,,,0.00,419.000000,,2013-05-11 23:52:00,
2013-05-11 18:21:00,68.0,28.0,-100.00,NNW,347,11.0,19.0,22,0.00,,,0.00,274.000000,,2013-05-12 00:21:00,
2013-05-11 18:32:00,68.0,28.0,-100.00,NNW,347,11.0,19.0,22,0.00,,,0.00,274.000000,,2013-05-12 00:32:00,
2013-05-11 18:42:00,68.0,28.0,-100.00,NNW,347,11.0,19.0,22,0.00,,,0.00,274.000000,,2013-05-12 00:42:00,
2013-05-11 18:52:00,68.0,28.0,-100.00,NNW,347,11.0,19.0,22,0.00,,,0.00,274.000000,,2013-05-12 00:52:00,
2013-05-11 19:21:00,72.0,23.0,-100.00,West,260,2.0,23.0,16,0.00,,,0.00,114.000000,,2013-05-12 01:21:00,
2013-05-11 19:32:00,72.0,23.0,-100.00,West,260,2.0,23.0,16,0.00,,,0.00,114.000000,,2013-05-12 01:32:00,
2013-05-11 19:41:00,72.0,23.0,-100.00,West,260,2.0,23.0,16,0.00,,,0.00,114.000000,,2013-05-12 01:41:00,
2013-05-11 19:52:00,72.0,23.0,-100.00,West,260,2.0,23.0,16,0.00,,,0.00,114.000000,,2013-05-12 01:52:00,
2013-05-11 20:22:00,66.0,29.0,-100.00,SSW,200,6.0,10.0,25,0.00,,,0.00,59.000000,,2013-05-12 02:22:00,
2013-05-11 20:31:00,66.0,29.0,-100.00,SSW,200,6.0,10.0,25,0.00,,,0.00,59.000000,,2013-05-12 02:31:00,
2013-05-11 20:42:00,66.0,29.0,-100.00,SSW,200,6.0,10.0,25,0.00,,,0.00,59.000000,,2013-05-12 02:42:00,
2013-05-11 20:52:00,66.0,29.0,-100.00,SSW,200,6.0,10.0,25,0.00,,,0.00,59.000000,,2013-05-12 02:52:00,
2013-05-11 21:22:00,60.0,29.0,-100.00,SW,228,2.0,9.0,31,0.00,,,0.00,12.000000,,2013-05-12 03:22:00,
2013-05-11 21:32:00,60.0,29.0,-100.00,SW,228,2.0,9.0,31,0.00,,,0.00,12.000000,,2013-05-12 03:32:00,
2013-05-11 21:42:00,60.0,29.0,-100.00,SW,228,2.0,9.0,31,0.00,,,0.00,12.000000,,2013-05-12 03:42:00,
2013-05-11 21:53:00,60.0,29.0,-100.00,SW,228,2.0,9.0,31,0.00,,,0.00,12.000000,,2013-05-12 03:53:00,
2013-05-11 22:22:00,57.0,32.0,-100.00,East,82,6.0,9.0,39,0.00,,,0.00,0.000000,,2013-05-12 04:22:00,
2013-05-11 22:33:00,57.0,32.0,-100.00,East,82,6.0,9.0,39,0.00,,,0.00,0.000000,,2013-05-12 04:33:00,
2013-05-11 22:43:00,57.0,32.0,-100.00,East,82,6.0,9.0,39,0.00,,,0.00,0.000000,,2013-05-12 04:43:00,
2013-05-11 22:52:00,57.0,32.0,-100.00,East,82,6.0,9.0,39,0.00,,,0.00,0.000000,,2013-05-12 04:52:00,
2013-05-11 23:22:00,55.0,34.0,-100.00,East,96,6.0,12.0,45,0.00,,,0.00,0.000000,,2013-05-12 05:22:00,
2013-05-11 23:31:00,55.0,34.0,-100.00,East,96,6.0,12.0,45,0.00,,,0.00,0.000000,,2013-05-12 05:31:00,
2013-05-11 23:42:00,55.0,34.0,-100.00,East,96,6.0,12.0,45,0.00,,,0.00,0.000000,,2013-05-12 05:42:00,
2013-05-11 23:51:00,55.0,34.0,-100.00,East,96,6.0,12.0,45,0.00,,,0.00,0.000000,,2013-05-12 05:51:00,